createdAt,value
2019-04-14T00:00:26.932Z,19.55
2019-04-14T00:01:26.199Z,19.54
2019-04-14T00:02:27.183Z,19.54
2019-04-14T00:03:26.146Z,19.54
2019-04-14T00:04:26.914Z,19.54
2019-04-14T00:05:26.025Z,19.53
2019-04-14T00:06:26.540Z,19.53
2019-04-14T00:07:26.117Z,19.53
2019-04-14T00:08:26.288Z,19.51
2019-04-14T00:09:27.172Z,19.51
2019-04-14T00:10:26.783Z,19.51
2019-04-14T00:11:26.265Z,19.5
2019-04-14T00:12:25.857Z,19.5
2019-04-14T00:13:26.257Z,19.5
2019-04-14T00:14:27.093Z,19.5
2019-04-14T00:15:32.833Z,19.5
2019-04-14T00:16:26.739Z,19.49
2019-04-14T00:17:26.215Z,19.48
2019-04-14T00:18:25.880Z,19.48
2019-04-14T00:19:26.207Z,19.47
2019-04-14T00:20:27.117Z,19.47
2019-04-14T00:21:26.113Z,19.48
2019-04-14T00:22:27.988Z,19.47
2019-04-14T00:23:26.150Z,19.47
2019-04-14T00:24:27.048Z,19.45
2019-04-14T00:25:26.174Z,19.45
2019-04-14T00:26:27.099Z,19.44
2019-04-14T00:27:26.218Z,19.44
2019-04-14T00:28:27.092Z,19.44
2019-04-14T00:29:26.344Z,19.42
2019-04-14T00:30:27.201Z,19.42
2019-04-14T00:31:26.316Z,19.41
2019-04-14T00:32:26.838Z,19.41
2019-04-14T00:33:25.974Z,19.4
2019-04-14T00:34:26.776Z,19.41
2019-04-14T00:35:25.918Z,19.41
2019-04-14T00:36:26.112Z,19.4
2019-04-14T00:37:27.328Z,19.4
2019-04-14T00:38:26.063Z,19.4
2019-04-14T00:39:27.019Z,19.39
2019-04-14T00:40:28.188Z,19.39
2019-04-14T00:41:36.000Z,19.38
2019-04-14T00:42:26.014Z,19.38
2019-04-14T00:43:26.613Z,19.37
2019-04-14T00:44:26.105Z,19.37
2019-04-14T00:45:36.903Z,19.38
2019-04-14T00:46:26.129Z,19.37
2019-04-14T00:47:26.768Z,19.36
2019-04-14T00:48:26.054Z,19.36
2019-04-14T00:49:26.812Z,19.36
2019-04-14T00:50:26.129Z,19.36
2019-04-14T00:51:26.546Z,19.36
2019-04-14T00:52:25.932Z,19.36
2019-04-14T00:53:27.239Z,19.36
2019-04-14T00:54:26.029Z,19.35
2019-04-14T00:55:27.080Z,19.34
2019-04-14T00:56:26.006Z,19.34
2019-04-14T00:57:26.828Z,19.34
2019-04-14T00:58:26.097Z,19.33
2019-04-14T00:59:26.804Z,19.34
2019-04-14T01:00:25.983Z,19.33
2019-04-14T01:01:26.462Z,19.32
2019-04-14T01:02:26.053Z,19.33
2019-04-14T01:03:26.557Z,19.32
2019-04-14T01:04:27.216Z,19.31
2019-04-14T01:05:26.271Z,19.31
2019-04-14T01:06:27.188Z,19.3
2019-04-14T01:07:26.237Z,19.31
2019-04-14T01:08:26.962Z,19.29
2019-04-14T01:09:26.138Z,19.29
2019-04-14T01:10:25.842Z,19.29
2019-04-14T01:11:26.990Z,19.29
2019-04-14T01:12:25.878Z,19.29
2019-04-14T01:13:26.755Z,19.28
2019-04-14T01:14:25.918Z,19.28
2019-04-14T01:15:26.750Z,19.28
2019-04-14T01:16:26.907Z,19.27
2019-04-14T01:17:26.562Z,19.27
2019-04-14T01:18:25.901Z,19.27
2019-04-14T01:19:26.613Z,19.27
2019-04-14T01:20:25.986Z,19.26
2019-04-14T01:21:26.305Z,19.26
2019-04-14T01:22:26.995Z,19.26
2019-04-14T01:23:26.147Z,19.26
2019-04-14T01:24:26.919Z,19.25
2019-04-14T01:25:26.124Z,19.25
2019-04-14T01:26:26.734Z,19.25
2019-04-14T01:27:26.287Z,19.25
2019-04-14T01:28:26.564Z,19.25
2019-04-14T01:29:25.864Z,19.25
2019-04-14T01:30:26.265Z,19.24
2019-04-14T01:31:25.898Z,19.23
2019-04-14T01:32:26.154Z,19.24
2019-04-14T01:33:27.151Z,19.23
2019-04-14T01:34:26.083Z,19.23
2019-04-14T01:35:26.992Z,19.22
2019-04-14T01:36:25.933Z,19.22
2019-04-14T01:37:26.803Z,19.22
2019-04-14T01:38:26.008Z,19.21
2019-04-14T01:39:26.500Z,19.21
2019-04-14T01:40:27.029Z,19.21
2019-04-14T01:41:26.149Z,19.21
2019-04-14T01:42:26.732Z,19.2
2019-04-14T01:43:26.079Z,19.2
2019-04-14T01:44:26.399Z,19.2
2019-04-14T01:45:25.846Z,19.2
2019-04-14T01:46:29.360Z,19.19
2019-04-14T01:47:26.996Z,19.19
2019-04-14T01:48:25.847Z,19.19
2019-04-14T01:49:26.859Z,19.19
2019-04-14T01:50:25.837Z,19.18
2019-04-14T01:51:26.631Z,19.18
2019-04-14T01:52:26.028Z,19.18
2019-04-14T01:53:25.870Z,19.17
2019-04-14T01:54:25.919Z,19.17
2019-04-14T01:55:26.587Z,19.16
2019-04-14T01:56:27.286Z,19.18
2019-04-14T01:57:26.345Z,19.16
2019-04-14T01:58:27.131Z,19.16
2019-04-14T01:59:26.276Z,19.16
2019-04-14T02:00:26.980Z,19.16
2019-04-14T02:01:26.072Z,19.15
2019-04-14T02:02:26.986Z,19.14
2019-04-14T02:03:26.643Z,19.14
2019-04-14T02:04:26.718Z,19.14
2019-04-14T02:05:25.986Z,19.14
2019-04-14T02:06:26.603Z,19.14
2019-04-14T02:07:25.916Z,19.14
2019-04-14T02:08:26.222Z,19.13
2019-04-14T02:09:27.111Z,19.12
2019-04-14T02:10:25.973Z,19.13
2019-04-14T02:11:26.968Z,19.12
2019-04-14T02:12:25.980Z,19.12
2019-04-14T02:13:26.788Z,19.12
2019-04-14T02:14:25.973Z,19.12
2019-04-14T02:15:26.559Z,19.11
2019-04-14T02:16:34.678Z,19.1
2019-04-14T02:17:26.345Z,19.11
2019-04-14T02:18:27.194Z,19.1
2019-04-14T02:19:26.329Z,19.1
2019-04-14T02:20:27.172Z,19.1
2019-04-14T02:21:26.099Z,19.09
2019-04-14T02:22:26.621Z,19.09
2019-04-14T02:23:26.077Z,19.09
2019-04-14T02:24:26.463Z,19.08
2019-04-14T02:25:25.791Z,19.07
2019-04-14T02:26:26.244Z,19.08
2019-04-14T02:27:25.852Z,19.08
2019-04-14T02:28:26.455Z,19.08
2019-04-14T02:29:25.849Z,19.07
2019-04-14T02:30:33.436Z,19.07
2019-04-14T02:31:43.087Z,19.06
2019-04-14T02:33:03.144Z,19.07
2019-04-14T02:33:50.037Z,19.06
2019-04-14T02:34:54.786Z,19.06
2019-04-14T02:35:54.807Z,19.05
2019-04-14T02:36:56.153Z,19.06
2019-04-14T02:37:54.241Z,19.05
2019-04-14T02:39:53.357Z,19.04
2019-04-14T02:41:10.460Z,19.04
2019-04-14T02:41:56.472Z,19.03
2019-04-14T02:42:53.834Z,19.03
2019-04-14T02:43:56.278Z,19.03
2019-04-14T02:46:01.474Z,19.03
2019-04-14T02:46:52.873Z,19.03
2019-04-14T02:48:02.130Z,19.02
2019-04-14T02:48:55.135Z,19.02
2019-04-14T02:49:50.399Z,19.02
2019-04-14T02:50:47.463Z,19.02
2019-04-14T02:51:47.917Z,19.01
2019-04-14T02:52:51.412Z,19.01
2019-04-14T02:55:57.216Z,19.01
2019-04-14T02:56:51.931Z,19
2019-04-14T02:57:51.777Z,19
2019-04-14T02:58:51.609Z,19
2019-04-14T02:59:49.261Z,19
2019-04-14T03:00:57.961Z,19
2019-04-14T03:02:03.251Z,18.99
2019-04-14T03:02:46.622Z,18.99
2019-04-14T03:03:48.648Z,18.98
2019-04-14T03:04:48.711Z,18.98
2019-04-14T03:05:51.129Z,18.99
2019-04-14T03:07:51.296Z,18.98
2019-04-14T03:08:58.744Z,18.97
2019-04-14T03:09:46.488Z,18.98
2019-04-14T03:11:50.996Z,18.95
2019-04-14T03:13:58.054Z,18.95
2019-04-14T03:14:53.300Z,18.94
2019-04-14T03:17:05.298Z,18.95
2019-04-14T03:17:59.922Z,18.94
2019-04-14T03:20:04.652Z,18.95
2019-04-14T03:20:54.281Z,18.95
2019-04-14T03:21:48.238Z,18.93
2019-04-14T03:22:49.597Z,18.93
2019-04-14T03:24:36.974Z,18.93
2019-04-14T03:25:48.888Z,18.93
2019-04-14T03:26:47.271Z,18.93
2019-04-14T03:27:54.319Z,18.92
2019-04-14T03:29:05.137Z,18.92
2019-04-14T03:29:58.062Z,18.92
2019-04-14T03:33:16.946Z,18.92
2019-04-14T03:37:28.756Z,18.9
2019-04-14T03:40:58.235Z,18.91
2019-04-14T03:41:52.486Z,18.91
2019-04-14T03:42:53.654Z,18.92
2019-04-14T03:43:45.831Z,18.92
2019-04-14T03:44:48.427Z,18.92
2019-04-14T03:45:58.728Z,18.92
2019-04-14T03:47:05.056Z,18.93
2019-04-14T03:47:59.634Z,18.93
2019-04-14T03:49:05.762Z,18.94
2019-04-14T03:49:52.288Z,18.95
2019-04-14T03:50:51.850Z,18.95
2019-04-14T03:54:43.912Z,18.97
2019-04-14T03:55:34.660Z,18.99
2019-04-14T03:56:26.924Z,18.99
2019-04-14T03:57:27.903Z,19
2019-04-14T03:58:27.021Z,19.01
2019-04-14T03:59:26.234Z,19.01
2019-04-14T04:00:31.647Z,19.03
2019-04-14T04:01:25.886Z,19.05
2019-04-14T04:02:27.104Z,19.06
2019-04-14T04:03:26.096Z,19.07
2019-04-14T04:04:27.300Z,19.08
2019-04-14T04:05:26.014Z,19.1
2019-04-14T04:06:26.979Z,19.13
2019-04-14T04:07:26.047Z,19.13
2019-04-14T04:08:26.769Z,19.15
2019-04-14T04:09:25.937Z,19.17
2019-04-14T04:10:27.052Z,19.18
2019-04-14T04:11:26.001Z,19.2
2019-04-14T04:12:27.044Z,19.21
2019-04-14T04:13:27.967Z,19.23
2019-04-14T04:14:27.079Z,19.24
2019-04-14T04:15:26.103Z,19.27
2019-04-14T04:16:26.857Z,19.28
2019-04-14T04:17:25.865Z,19.3
2019-04-14T04:18:26.527Z,19.31
2019-04-14T04:19:27.182Z,19.34
2019-04-14T04:20:26.355Z,19.36
2019-04-14T04:21:26.889Z,19.37
2019-04-14T04:22:26.093Z,19.38
2019-04-14T04:23:26.975Z,19.41
2019-04-14T04:24:27.799Z,19.42
2019-04-14T04:25:26.834Z,19.44
2019-04-14T04:26:26.068Z,19.45
2019-04-14T04:27:26.548Z,19.47
2019-04-14T04:28:25.965Z,19.48
2019-04-14T04:29:26.577Z,19.5
2019-04-14T04:30:26.102Z,19.51
2019-04-14T04:31:26.394Z,19.54
2019-04-14T04:32:26.084Z,19.53
2019-04-14T04:33:26.375Z,19.55
2019-04-14T04:34:27.163Z,19.57
2019-04-14T04:35:25.993Z,19.58
2019-04-14T04:36:26.930Z,19.59
2019-04-14T04:37:25.868Z,19.61
2019-04-14T04:38:26.898Z,19.62
2019-04-14T04:39:25.895Z,19.63
2019-04-14T04:40:26.798Z,19.64
2019-04-14T04:41:26.014Z,19.66
2019-04-14T04:42:26.488Z,19.67
2019-04-14T04:43:27.569Z,19.68
2019-04-14T04:44:27.007Z,19.7
2019-04-14T04:45:26.013Z,19.71
2019-04-14T04:46:26.544Z,19.72
2019-04-14T04:47:27.284Z,19.74
2019-04-14T04:48:26.372Z,19.75
2019-04-14T04:49:27.995Z,19.77
2019-04-14T04:50:26.091Z,19.78
2019-04-14T04:51:26.787Z,19.79
2019-04-14T04:52:26.018Z,19.81
2019-04-14T04:53:26.667Z,19.81
2019-04-14T04:54:25.841Z,19.82
2019-04-14T04:55:26.279Z,19.84
2019-04-14T04:56:25.923Z,19.85
2019-04-14T04:57:26.387Z,19.86
2019-04-14T04:58:26.230Z,19.86
2019-04-14T04:59:25.773Z,19.87
2019-04-14T05:00:26.618Z,19.89
2019-04-14T05:01:26.124Z,19.9
2019-04-14T05:02:26.632Z,19.91
2019-04-14T05:03:25.936Z,19.91
2019-04-14T05:04:26.581Z,19.92
2019-04-14T05:05:26.002Z,19.93
2019-04-14T05:06:26.595Z,19.94
2019-04-14T05:07:25.761Z,19.95
2019-04-14T05:08:26.311Z,19.96
2019-04-14T05:09:26.009Z,19.97
2019-04-14T05:10:26.335Z,19.98
2019-04-14T05:11:27.033Z,19.99
2019-04-14T05:12:26.242Z,20
2019-04-14T05:13:26.943Z,20.01
2019-04-14T05:14:26.193Z,20.01
2019-04-14T05:15:26.919Z,20.02
2019-04-14T05:16:26.033Z,20.03
2019-04-14T05:17:25.988Z,20.02
2019-04-14T05:18:28.954Z,20.04
2019-04-14T05:19:31.645Z,20.04
2019-04-14T05:20:27.009Z,20.05
2019-04-14T05:21:25.908Z,20.06
2019-04-14T05:22:26.745Z,20.06
2019-04-14T05:23:26.088Z,20.07
2019-04-14T05:24:26.857Z,20.08
2019-04-14T05:25:26.037Z,20.08
2019-04-14T05:26:26.581Z,20.09
2019-04-14T05:27:26.027Z,20.1
2019-04-14T05:28:26.690Z,20.1
2019-04-14T05:29:26.091Z,20.11
2019-04-14T05:30:26.398Z,20.12
2019-04-14T05:31:27.691Z,20.13
2019-04-14T05:32:26.141Z,20.13
2019-04-14T05:33:27.048Z,20.15
2019-04-14T05:34:26.126Z,20.14
2019-04-14T05:35:26.700Z,20.16
2019-04-14T05:36:26.020Z,20.15
2019-04-14T05:37:26.845Z,20.16
2019-04-14T05:38:26.198Z,20.17
2019-04-14T05:39:26.439Z,20.18
2019-04-14T05:40:26.131Z,20.19
2019-04-14T05:41:26.491Z,20.19
2019-04-14T05:42:27.145Z,20.19
2019-04-14T05:43:36.493Z,20.2
2019-04-14T05:44:26.025Z,20.2
2019-04-14T05:45:26.245Z,20.22
2019-04-14T05:46:27.140Z,20.21
2019-04-14T05:47:26.186Z,20.23
2019-04-14T05:48:27.106Z,20.24
2019-04-14T05:49:33.546Z,20.25
2019-04-14T05:50:27.103Z,20.26
2019-04-14T05:51:26.414Z,20.27
2019-04-14T05:52:25.838Z,20.27
2019-04-14T05:53:26.232Z,20.28
2019-04-14T05:54:25.930Z,20.28
2019-04-14T05:55:26.280Z,20.29
2019-04-14T05:56:25.915Z,20.3
2019-04-14T05:57:26.309Z,20.31
2019-04-14T05:58:25.907Z,20.31
2019-04-14T05:59:26.434Z,20.31
2019-04-14T06:00:26.144Z,20.32
2019-04-14T06:01:27.023Z,20.33
2019-04-14T06:02:27.850Z,20.34
2019-04-14T06:03:25.964Z,20.33
2019-04-14T06:04:26.425Z,20.35
2019-04-14T06:05:26.053Z,20.35
2019-04-14T06:06:25.829Z,20.36
2019-04-14T06:07:25.819Z,20.38
2019-04-14T06:08:25.843Z,20.38
2019-04-14T06:09:25.745Z,20.38
2019-04-14T06:10:25.733Z,20.39
2019-04-14T06:11:25.823Z,20.39
2019-04-14T06:12:25.783Z,20.4
2019-04-14T06:13:25.816Z,20.41
2019-04-14T06:14:25.838Z,20.42
2019-04-14T06:15:25.864Z,20.42
2019-04-14T06:16:25.854Z,20.43
2019-04-14T06:17:26.006Z,20.43
2019-04-14T06:18:26.031Z,20.44
2019-04-14T06:19:36.335Z,20.44
2019-04-14T06:20:25.940Z,20.45
2019-04-14T06:21:25.961Z,20.46
2019-04-14T06:22:25.994Z,20.46
2019-04-14T06:23:25.954Z,20.46
2019-04-14T06:24:25.745Z,20.47
2019-04-14T06:25:25.784Z,20.47
2019-04-14T06:26:25.813Z,20.47
2019-04-14T06:27:25.774Z,20.48
2019-04-14T06:28:25.781Z,20.48
2019-04-14T06:29:25.881Z,20.49
2019-04-14T06:30:25.881Z,20.5
2019-04-14T06:31:25.861Z,20.51
2019-04-14T06:32:25.849Z,20.51
2019-04-14T06:33:25.866Z,20.51
2019-04-14T06:34:25.865Z,20.52
2019-04-14T06:35:25.935Z,20.53
2019-04-14T06:36:25.949Z,20.53
2019-04-14T06:37:26.030Z,20.55
2019-04-14T06:38:25.949Z,20.54
2019-04-14T06:39:26.066Z,20.55
2019-04-14T06:40:26.007Z,20.56
2019-04-14T06:41:25.931Z,20.57
2019-04-14T06:42:25.982Z,20.57
2019-04-14T06:43:25.881Z,20.58
2019-04-14T06:44:26.193Z,20.58
2019-04-14T06:45:25.734Z,20.58
2019-04-14T06:46:25.745Z,20.58
2019-04-14T06:47:25.803Z,20.6
2019-04-14T06:48:25.780Z,20.6
2019-04-14T06:49:25.757Z,20.61
2019-04-14T06:50:25.859Z,20.61
2019-04-14T06:51:25.809Z,20.6
2019-04-14T06:52:25.820Z,20.62
2019-04-14T06:53:25.963Z,20.63
2019-04-14T06:54:25.850Z,20.64
2019-04-14T06:55:25.938Z,20.64
2019-04-14T06:56:26.001Z,20.65
2019-04-14T06:57:25.889Z,20.65
2019-04-14T06:58:25.879Z,20.66
2019-04-14T06:59:26.016Z,20.67
2019-04-14T07:00:25.713Z,20.67
2019-04-14T07:01:25.755Z,20.52
2019-04-14T07:02:25.865Z,20.19
2019-04-14T07:03:25.719Z,19.92
2019-04-14T07:04:25.778Z,19.85
2019-04-14T07:05:25.946Z,19.81
2019-04-14T07:06:25.779Z,19.73
2019-04-14T07:07:25.848Z,19.6
2019-04-14T07:08:26.004Z,19.63
2019-04-14T07:09:25.838Z,19.68
2019-04-14T07:10:25.856Z,19.73
2019-04-14T07:11:25.960Z,19.78
2019-04-14T07:12:25.873Z,19.85
2019-04-14T07:13:25.895Z,19.9
2019-04-14T07:14:25.955Z,19.95
2019-04-14T07:15:25.944Z,19.98
2019-04-14T07:16:25.917Z,20.02
2019-04-14T07:17:26.109Z,20.04
2019-04-14T07:18:25.953Z,20.07
2019-04-14T07:19:26.026Z,20.09
2019-04-14T07:20:25.704Z,20.12
2019-04-14T07:21:25.695Z,20.13
2019-04-14T07:22:25.717Z,20.15
2019-04-14T07:23:25.764Z,20.16
2019-04-14T07:24:25.896Z,20.18
2019-04-14T07:25:25.818Z,20.19
2019-04-14T07:26:25.995Z,20.2
2019-04-14T07:27:25.883Z,20.2
2019-04-14T07:28:25.862Z,20.21
2019-04-14T07:29:25.902Z,20.22
2019-04-14T07:30:25.846Z,20.22
2019-04-14T07:31:26.076Z,20.23
2019-04-14T07:32:25.838Z,20.24
2019-04-14T07:33:26.021Z,20.23
2019-04-14T07:34:25.908Z,20.24
2019-04-14T07:35:25.915Z,20.25
2019-04-14T07:36:25.905Z,20.25
2019-04-14T07:37:25.915Z,20.25
2019-04-14T07:38:25.737Z,20.25
2019-04-14T07:39:25.761Z,20.25
2019-04-14T07:40:25.779Z,20.25
2019-04-14T07:41:25.765Z,20.25
2019-04-14T07:42:25.762Z,20.24
2019-04-14T07:43:25.786Z,20.23
2019-04-14T07:44:25.909Z,20.24
2019-04-14T07:45:25.833Z,20.24
2019-04-14T07:46:25.888Z,20.24
2019-04-14T07:47:25.991Z,20.23
2019-04-14T07:48:26.100Z,20.22
2019-04-14T07:49:25.846Z,20.23
2019-04-14T07:50:25.836Z,20.23
2019-04-14T07:51:25.932Z,20.23
2019-04-14T07:52:25.929Z,20.22
2019-04-14T07:53:26.012Z,20.21
2019-04-14T07:54:25.947Z,20.21
2019-04-14T07:55:26.032Z,20.21
2019-04-14T07:56:25.959Z,20.2
2019-04-14T07:57:25.672Z,20.2
2019-04-14T07:58:25.704Z,20.2
2019-04-14T07:59:25.741Z,20.2
2019-04-14T08:00:25.803Z,20.19
2019-04-14T08:01:26.052Z,20.19
2019-04-14T08:02:25.782Z,20.18
2019-04-14T08:03:25.823Z,20.17
2019-04-14T08:04:25.819Z,20.17
2019-04-14T08:05:25.842Z,20.16
2019-04-14T08:06:25.816Z,20.16
2019-04-14T08:07:25.913Z,20.15
2019-04-14T08:08:25.857Z,20.14
2019-04-14T08:09:25.923Z,20.15
2019-04-14T08:10:25.878Z,20.14
2019-04-14T08:11:25.907Z,20.14
2019-04-14T08:12:26.089Z,20.14
2019-04-14T08:13:25.903Z,20.12
2019-04-14T08:14:26.107Z,20.12
2019-04-14T08:15:25.696Z,20.12
2019-04-14T08:16:25.844Z,20.11
2019-04-14T08:17:25.737Z,20.11
2019-04-14T08:18:25.854Z,20.1
2019-04-14T08:19:25.740Z,20.09
2019-04-14T08:20:27.534Z,20.09
2019-04-14T08:21:25.744Z,20.09
2019-04-14T08:22:25.797Z,20.09
2019-04-14T08:23:25.818Z,20.08
2019-04-14T08:24:25.842Z,20.08
2019-04-14T08:25:25.862Z,20.06
2019-04-14T08:26:25.864Z,20.04
2019-04-14T08:27:25.986Z,20.05
2019-04-14T08:28:25.865Z,20.04
2019-04-14T08:29:25.881Z,20.05
2019-04-14T08:30:26.005Z,20.04
2019-04-14T08:31:25.970Z,20.03
2019-04-14T08:32:25.926Z,20.03
2019-04-14T08:33:25.994Z,20.02
2019-04-14T08:34:25.741Z,20.01
2019-04-14T08:35:25.696Z,20.01
2019-04-14T08:36:25.650Z,20
2019-04-14T08:37:25.656Z,20
2019-04-14T08:38:25.767Z,19.98
2019-04-14T08:39:25.728Z,20.03
2019-04-14T08:40:25.739Z,20.02
2019-04-14T08:41:25.948Z,20.03
2019-04-14T08:42:25.823Z,20.04
2019-04-14T08:43:25.760Z,20.05
2019-04-14T08:44:25.833Z,20.05
2019-04-14T08:45:26.065Z,20.05
2019-04-14T08:46:26.017Z,20.05
2019-04-14T08:47:25.868Z,20.04
2019-04-14T08:48:25.845Z,20.04
2019-04-14T08:49:25.879Z,20.04
2019-04-14T08:50:25.967Z,20.06
2019-04-14T08:51:25.676Z,20.07
2019-04-14T08:52:25.815Z,20.09
2019-04-14T08:53:25.982Z,20.1
2019-04-14T08:54:25.714Z,20.1
2019-04-14T08:55:25.862Z,20.1
2019-04-14T08:56:25.787Z,20.09
2019-04-14T08:57:25.931Z,20.1
2019-04-14T08:58:25.738Z,20.09
2019-04-14T08:59:25.957Z,20.09
2019-04-14T09:00:25.793Z,20.08
2019-04-14T09:01:25.927Z,20.09
2019-04-14T09:02:25.930Z,20.09
2019-04-14T09:03:25.854Z,20.08
2019-04-14T09:04:26.002Z,20.07
2019-04-14T09:05:25.846Z,20.07
2019-04-14T09:06:26.012Z,20.07
2019-04-14T09:07:25.867Z,20.08
2019-04-14T09:08:26.070Z,20.07
2019-04-14T09:09:25.669Z,20.07
2019-04-14T09:10:25.637Z,20.08
2019-04-14T09:11:25.748Z,20.08
2019-04-14T09:12:25.668Z,20.07
2019-04-14T09:13:25.687Z,20.07
2019-04-14T09:14:25.770Z,20.07
2019-04-14T09:15:25.721Z,20.06
2019-04-14T09:16:25.727Z,20.07
2019-04-14T09:17:25.790Z,20.06
2019-04-14T09:18:25.841Z,20.05
2019-04-14T09:19:25.779Z,20.06
2019-04-14T09:20:25.838Z,20.06
2019-04-14T09:21:25.939Z,20.05
2019-04-14T09:22:25.807Z,20.06
2019-04-14T09:23:26.079Z,20.04
2019-04-14T09:24:25.999Z,20.05
2019-04-14T09:25:26.018Z,20.04
2019-04-14T09:26:25.989Z,20.05
2019-04-14T09:27:25.760Z,20.05
2019-04-14T09:28:25.837Z,20.05
2019-04-14T09:29:25.696Z,20.05
2019-04-14T09:30:25.812Z,20.05
2019-04-14T09:31:25.712Z,20.05
2019-04-14T09:32:25.828Z,20.04
2019-04-14T09:33:25.818Z,20.05
2019-04-14T09:34:25.734Z,20.04
2019-04-14T09:35:25.763Z,20.03
2019-04-14T09:36:25.852Z,20.04
2019-04-14T09:37:25.860Z,20.04
2019-04-14T09:38:26.018Z,20.05
2019-04-14T09:39:25.840Z,20.04
2019-04-14T09:40:25.962Z,20.05
2019-04-14T09:41:25.885Z,20.05
2019-04-14T09:42:25.838Z,20.04
2019-04-14T09:43:25.948Z,20.04
2019-04-14T09:44:26.086Z,20.04
2019-04-14T09:45:26.036Z,20.04
2019-04-14T09:46:26.057Z,20.03
2019-04-14T09:47:25.716Z,20.04
2019-04-14T09:48:25.665Z,20.05
2019-04-14T09:49:25.648Z,20.04
2019-04-14T09:50:25.696Z,20.06
2019-04-14T09:51:25.692Z,20.06
2019-04-14T09:52:25.679Z,20.06
2019-04-14T09:53:25.782Z,19.95
2019-04-14T09:54:25.874Z,19.99
2019-04-14T09:55:25.759Z,20
2019-04-14T09:56:25.778Z,20
2019-04-14T09:57:25.794Z,20.01
2019-04-14T09:58:25.859Z,20.02
2019-04-14T09:59:25.805Z,20.04
2019-04-14T10:00:25.838Z,20.05
2019-04-14T10:01:25.894Z,20.08
2019-04-14T10:02:25.963Z,20.1
2019-04-14T10:03:25.920Z,20.14
2019-04-14T10:04:25.669Z,20.14
2019-04-14T10:05:25.698Z,20.16
2019-04-14T10:06:25.769Z,20.19
2019-04-14T10:07:26.063Z,20.22
2019-04-14T10:08:26.247Z,20.25
2019-04-14T10:09:25.745Z,20.26
2019-04-14T10:10:25.810Z,20.28
2019-04-14T10:11:25.799Z,20.3
2019-04-14T10:12:25.821Z,20.3
2019-04-14T10:13:25.963Z,20.32
2019-04-14T10:14:25.826Z,20.33
2019-04-14T10:15:25.785Z,20.35
2019-04-14T10:16:25.938Z,20.36
2019-04-14T10:17:25.824Z,20.39
2019-04-14T10:18:25.820Z,20.41
2019-04-14T10:19:25.835Z,20.42
2019-04-14T10:20:25.876Z,20.44
2019-04-14T10:21:25.874Z,20.46
2019-04-14T10:22:33.634Z,20.47
2019-04-14T10:23:25.726Z,20.48
2019-04-14T10:24:25.628Z,20.5
2019-04-14T10:25:25.637Z,20.51
2019-04-14T10:26:25.683Z,20.53
2019-04-14T10:27:25.645Z,20.54
2019-04-14T10:28:25.775Z,20.56
2019-04-14T10:29:25.710Z,20.56
2019-04-14T10:30:25.695Z,20.59
2019-04-14T10:31:25.770Z,20.61
2019-04-14T10:32:25.751Z,20.62
2019-04-14T10:33:25.720Z,20.62
2019-04-14T10:34:25.805Z,20.64
2019-04-14T10:35:25.809Z,20.65
2019-04-14T10:36:26.016Z,20.65
2019-04-14T10:37:25.798Z,20.67
2019-04-14T10:38:25.827Z,20.68
2019-04-14T10:39:25.802Z,20.71
2019-04-14T10:40:25.847Z,20.7
2019-04-14T10:41:25.657Z,20.72
2019-04-14T10:42:25.670Z,20.73
2019-04-14T10:43:25.814Z,20.75
2019-04-14T10:44:25.796Z,20.76
2019-04-14T10:45:25.814Z,20.78
2019-04-14T10:46:25.700Z,20.79
2019-04-14T10:47:25.824Z,20.81
2019-04-14T10:48:25.875Z,20.81
2019-04-14T10:49:25.866Z,20.83
2019-04-14T10:50:30.905Z,20.84
2019-04-14T10:51:30.122Z,20.85
2019-04-14T10:52:25.920Z,20.86
2019-04-14T10:53:25.811Z,20.86
2019-04-14T10:54:25.953Z,20.87
2019-04-14T10:55:25.835Z,20.87
2019-04-14T10:56:25.921Z,20.89
2019-04-14T10:57:25.874Z,20.9
2019-04-14T10:58:25.843Z,20.92
2019-04-14T10:59:25.644Z,20.92
2019-04-14T11:00:25.780Z,20.93
2019-04-14T11:01:25.618Z,20.95
2019-04-14T11:02:25.783Z,20.97
2019-04-14T11:03:25.715Z,20.96
2019-04-14T11:04:25.660Z,20.97
2019-04-14T11:05:25.817Z,20.98
2019-04-14T11:06:25.690Z,21
2019-04-14T11:07:25.856Z,21.01
2019-04-14T11:08:25.929Z,21.04
2019-04-14T11:09:25.798Z,21.04
2019-04-14T11:10:25.708Z,21.02
2019-04-14T11:11:25.845Z,21.01
2019-04-14T11:12:25.846Z,21
2019-04-14T11:13:26.045Z,21
2019-04-14T11:14:26.044Z,21
2019-04-14T11:15:25.859Z,21
2019-04-14T11:16:26.005Z,21.01
2019-04-14T11:17:25.784Z,21.01
2019-04-14T11:18:25.603Z,21
2019-04-14T11:19:25.654Z,21
2019-04-14T11:20:25.705Z,21
2019-04-14T11:21:25.822Z,20.99
2019-04-14T11:22:25.798Z,21
2019-04-14T11:23:25.712Z,20.99
2019-04-14T11:24:25.819Z,20.99
2019-04-14T11:25:25.739Z,20.99
2019-04-14T11:26:25.807Z,20.99
2019-04-14T11:27:25.843Z,20.98
2019-04-14T11:28:25.854Z,20.98
2019-04-14T11:29:25.828Z,20.98
2019-04-14T11:30:25.757Z,20.98
2019-04-14T11:31:25.836Z,20.98
2019-04-14T11:32:25.834Z,20.98
2019-04-14T11:33:25.938Z,20.99
2019-04-14T11:34:25.919Z,20.99
2019-04-14T11:35:25.997Z,20.98
2019-04-14T11:36:25.654Z,20.98
2019-04-14T11:37:25.657Z,20.99
2019-04-14T11:38:25.724Z,20.98
2019-04-14T11:39:25.623Z,20.97
2019-04-14T11:40:25.568Z,20.84
2019-04-14T11:41:25.825Z,20.72
2019-04-14T11:42:25.800Z,20.66
2019-04-14T11:43:25.672Z,20.62
2019-04-14T11:44:25.917Z,20.57
2019-04-14T11:45:25.795Z,20.53
2019-04-14T11:46:25.799Z,20.57
2019-04-14T11:47:25.785Z,20.59
2019-04-14T11:48:25.839Z,20.61
2019-04-14T11:49:25.747Z,20.64
2019-04-14T11:50:25.902Z,20.66
2019-04-14T11:51:25.855Z,20.68
2019-04-14T11:52:25.847Z,20.7
2019-04-14T11:53:25.835Z,20.71
2019-04-14T11:54:25.823Z,20.73
2019-04-14T11:55:25.574Z,20.74
2019-04-14T11:56:25.781Z,20.75
2019-04-14T11:57:25.623Z,20.76
2019-04-14T11:58:25.751Z,20.76
2019-04-14T11:59:25.705Z,20.77
2019-04-14T12:00:25.667Z,20.77
2019-04-14T12:01:25.905Z,20.77
2019-04-14T12:02:25.638Z,20.77
2019-04-14T12:03:25.710Z,20.76
2019-04-14T12:04:25.691Z,20.77
2019-04-14T12:05:25.739Z,20.77
2019-04-14T12:06:25.762Z,20.77
2019-04-14T12:07:25.869Z,20.76
2019-04-14T12:08:25.921Z,20.75
2019-04-14T12:09:25.843Z,20.76
2019-04-14T12:10:25.740Z,20.76
2019-04-14T12:11:25.841Z,20.75
2019-04-14T12:12:25.821Z,20.75
2019-04-14T12:13:25.808Z,20.75
2019-04-14T12:14:25.629Z,20.76
2019-04-14T12:15:25.614Z,20.74
2019-04-14T12:16:25.707Z,20.72
2019-04-14T12:17:25.758Z,20.72
2019-04-14T12:18:26.105Z,20.72
2019-04-14T12:19:25.663Z,20.71
2019-04-14T12:20:25.761Z,20.71
2019-04-14T12:21:25.719Z,20.68
2019-04-14T12:22:25.662Z,20.69
2019-04-14T12:23:25.767Z,20.68
2019-04-14T12:24:25.848Z,20.68
2019-04-14T12:25:25.766Z,20.68
2019-04-14T12:26:25.658Z,20.68
2019-04-14T12:27:25.849Z,20.66
2019-04-14T12:28:26.251Z,20.67
2019-04-14T12:29:26.092Z,20.65
2019-04-14T12:30:26.800Z,20.66
2019-04-14T12:31:26.488Z,20.66
2019-04-14T12:32:25.736Z,20.65
2019-04-14T12:33:25.593Z,20.64
2019-04-14T12:34:25.601Z,20.64
2019-04-14T12:35:25.748Z,20.63
2019-04-14T12:36:25.749Z,20.62
2019-04-14T12:37:25.788Z,20.61
2019-04-14T12:38:25.836Z,20.62
2019-04-14T12:39:26.138Z,20.61
2019-04-14T12:40:25.696Z,20.62
2019-04-14T12:41:26.625Z,20.61
2019-04-14T12:42:25.749Z,20.63
2019-04-14T12:43:25.777Z,20.63
2019-04-14T12:44:25.821Z,20.63
2019-04-14T12:45:26.026Z,20.64
2019-04-14T12:46:25.929Z,20.65
2019-04-14T12:47:26.002Z,20.65
2019-04-14T12:48:25.835Z,20.66
2019-04-14T12:49:25.563Z,20.66
2019-04-14T12:50:25.639Z,20.66
2019-04-14T12:51:25.622Z,20.66
2019-04-14T12:52:25.649Z,20.66
2019-04-14T12:53:26.721Z,20.65
2019-04-14T12:54:25.691Z,20.65
2019-04-14T12:55:25.732Z,20.65
2019-04-14T12:56:25.757Z,20.63
2019-04-14T12:57:25.668Z,20.63
2019-04-14T12:58:25.672Z,20.64
2019-04-14T12:59:26.083Z,20.63
2019-04-14T13:00:26.471Z,20.62
2019-04-14T13:01:26.021Z,20.63
2019-04-14T13:02:25.749Z,20.62
2019-04-14T13:03:25.820Z,20.62
2019-04-14T13:04:25.846Z,20.61
2019-04-14T13:05:26.037Z,20.61
2019-04-14T13:06:25.780Z,20.61
2019-04-14T13:07:25.924Z,20.62
2019-04-14T13:08:25.643Z,20.61
2019-04-14T13:09:25.763Z,20.6
2019-04-14T13:10:25.673Z,20.61
2019-04-14T13:11:25.672Z,20.61
2019-04-14T13:12:25.708Z,20.6
2019-04-14T13:13:25.622Z,20.61
2019-04-14T13:14:25.689Z,20.6
2019-04-14T13:15:25.675Z,20.6
2019-04-14T13:16:25.783Z,20.6
2019-04-14T13:17:25.687Z,20.6